Merle K (Mudhole) Smith Airport Cordova US
ICAO: PACV
IATA:
Category: Medium
Scheduled Services:

Elevation: 54 ft
TransAlt. 18000 ft.

Airport Communications:
ANCHORAGE APP/DEP:133.6
ASOS:134.8
CTAF:123.6
JUNEAU RDO:122.2

PACV Zoom In..

If Map Doesn't Load, Click Here

Runways:

(A) RW 09 length 7500 ft width 150 ft
---- / hdg 95

(B) RW 16 length 1899 ft width 30 ft
---- / hdg 162

(C) RW 27 length 7500 ft width 150 ft
ILS 110.70 / hdg 275

(D) RW 34 length 1899 ft width 30 ft
---- / hdg 342

Location; PACV
Day. 24 / Time. 04.53 Zulu
* Altimeter: 29.98
* Temperature: 10° c. 50°f.
* Wind from: 110° Speed 04 kn.
Dewpoint: 09° c.
Visibility: 10 Statute Miles.
Clouds: Few 1500 ft.
Clouds: Scattered 2500 ft.
Clouds: Broken 15000 ft.

PACV 240453Z 11004KT 10SM FEW015 SCT025 BKN150 10/09 A2998 RMK AO2 SLP151 T01000094


Wind From 110°
Speed 04 kn.

 
 
jpsmedia.com for Web Design worldairports.se 2018   terms of use